Time;durP1;ratioP1;P1;durP2;ratioP2;P2;SDS_P1;SDS_P2;PMS_P1;PMS_P2;Temp;Humidity;BMP_temperature;BMP_pressure;BME280_temperature;BME280_humidity;BME280_pressure;Samples;Min_cycle;Max_cycle;Signal;HPM_P1;HPM_P2
2023/07/15 00:00:21;;;;;;;2.58;2.38;;;24.30;99.90;;;;;;5124452;27;20023;-75
2023/07/15 00:02:46;;;;;;;3.55;2.30;;;24.40;99.90;;;;;;5117877;27;20355;-75
2023/07/15 00:05:28;;;;;;;4.47;2.15;;;24.30;99.90;;;;;;5122543;27;20049;-75
2023/07/15 00:07:55;;;;;;;4.15;2.78;;;24.30;99.90;;;;;;5120602;27;20032;-75
2023/07/15 00:10:22;;;;;;;2.33;2.13;;;24.30;99.90;;;;;;5116808;27;20021;-75
2023/07/15 00:12:48;;;;;;;3.72;2.17;;;24.20;99.90;;;;;;5126701;27;20039;-75
2023/07/15 00:15:14;;;;;;;4.40;2.60;;;24.20;99.90;;;;;;5118800;27;20433;-75
2023/07/15 00:17:40;;;;;;;3.25;2.38;;;24.20;99.90;;;;;;5131725;27;20043;-75
2023/07/15 00:20:09;;;;;;;2.35;2.00;;;24.20;99.90;;;;;;5125660;27;20023;-76
2023/07/15 00:22:35;;;;;;;2.10;1.92;;;24.30;99.90;;;;;;5120491;27;20034;-75
2023/07/15 00:25:05;;;;;;;5.72;2.08;;;24.30;99.90;;;;;;5128918;27;20386;-75
2023/07/15 00:27:31;;;;;;;6.70;2.20;;;24.30;99.90;;;;;;5117954;27;20016;-75
2023/07/15 00:29:57;;;;;;;2.65;2.50;;;24.20;99.90;;;;;;5126609;27;20023;-75
2023/07/15 00:32:23;;;;;;;2.58;2.15;;;24.30;99.90;;;;;;5117787;28;20364;-75
2023/07/15 00:34:48;;;;;;;5.13;2.15;;;24.30;99.90;;;;;;5124391;27;20107;-75
2023/07/15 00:37:14;;;;;;;5.07;2.42;;;24.20;99.90;;;;;;5112205;28;20027;-75
2023/07/15 00:39:40;;;;;;;2.88;2.65;;;24.20;99.90;;;;;;5116196;28;20023;-75
2023/07/15 00:42:13;;;;;;;2.78;2.10;;;24.30;99.90;;;;;;5119065;27;20015;-75
2023/07/15 00:44:38;;;;;;;5.05;2.40;;;24.30;99.90;;;;;;5126655;27;20023;-75
2023/07/15 00:47:30;;;;;;;5.72;2.70;;;24.30;99.90;;;;;;5131538;27;20024;-75
2023/07/15 00:49:56;;;;;;;3.55;2.15;;;24.40;99.90;;;;;;5129186;27;20103;-75
2023/07/15 00:52:22;;;;;;;6.22;2.40;;;24.30;99.90;;;;;;5128198;27;20055;-74
2023/07/15 00:54:52;;;;;;;3.40;2.28;;;24.30;99.90;;;;;;5124063;27;20072;-75
2023/07/15 00:57:20;;;;;;;4.53;2.67;;;24.30;99.90;;;;;;5126958;27;20032;-75
2023/07/15 00:59:48;;;;;;;3.53;2.30;;;24.20;99.90;;;;;;5136072;27;20020;-75
2023/07/15 01:02:15;;;;;;;3.13;2.08;;;24.30;99.90;;;;;;5124819;27;20364;-75
2023/07/15 01:04:41;;;;;;;4.10;1.88;;;24.30;99.90;;;;;;5120086;27;20038;-75
2023/07/15 01:07:07;;;;;;;2.53;2.15;;;24.30;99.90;;;;;;5136434;27;20363;-75
2023/07/15 01:09:34;;;;;;;4.15;2.42;;;24.40;99.90;;;;;;5127717;27;20058;-75
2023/07/15 01:12:00;;;;;;;2.20;2.00;;;24.20;99.90;;;;;;5123878;27;20474;-75
2023/07/15 01:14:28;;;;;;;4.22;2.42;;;24.30;99.90;;;;;;5125123;27;20050;-75
2023/07/15 01:16:54;;;;;;;4.95;2.30;;;24.20;99.90;;;;;;5127863;27;20054;-75
2023/07/15 01:19:21;;;;;;;5.35;2.53;;;24.30;99.90;;;;;;5124277;27;20023;-75
2023/07/15 01:21:50;;;;;;;3.33;2.13;;;24.30;99.90;;;;;;5125215;27;20038;-75
2023/07/15 01:24:21;;;;;;;2.65;2.00;;;24.30;99.90;;;;;;5127400;27;20061;-75
2023/07/15 01:26:47;;;;;;;3.10;2.13;;;24.30;99.90;;;;;;5124240;27;20431;-75
2023/07/15 01:29:16;;;;;;;2.22;2.03;;;24.20;99.90;;;;;;5130804;27;20081;-75
2023/07/15 01:31:42;;;;;;;5.45;2.22;;;24.20;99.90;;;;;;5128642;27;20433;-75
2023/07/15 01:34:08;;;;;;;3.67;2.42;;;24.10;99.90;;;;;;5123288;27;20031;-75
2023/07/15 01:36:34;;;;;;;6.28;2.13;;;24.10;99.90;;;;;;5125806;27;20024;-75
2023/07/15 01:38:59;;;;;;;2.95;2.45;;;24.00;99.90;;;;;;5123290;27;20035;-75
2023/07/15 01:41:25;;;;;;;2.58;2.35;;;24.00;99.90;;;;;;5125046;27;20038;-76
2023/07/15 01:43:51;;;;;;;2.63;2.10;;;24.10;99.90;;;;;;5123777;27;20066;-75
2023/07/15 01:46:17;;;;;;;4.90;2.30;;;24.00;99.90;;;;;;5126945;27;20393;-75
2023/07/15 01:48:43;;;;;;;7.47;2.42;;;24.10;99.90;;;;;;5123123;27;20027;-75
2023/07/15 01:51:08;;;;;;;2.85;2.58;;;24.00;99.90;;;;;;5129777;27;20023;-75
2023/07/15 01:53:34;;;;;;;7.38;2.20;;;24.00;99.90;;;;;;5123710;27;20031;-76
2023/07/15 01:56:00;;;;;;;2.88;2.20;;;23.90;99.90;;;;;;5125898;27;20023;-75
2023/07/15 01:58:25;;;;;;;2.53;2.33;;;23.90;99.90;;;;;;5124329;27;20024;-75
2023/07/15 02:00:51;;;;;;;8.00;2.17;;;23.90;99.90;;;;;;5127121;27;20027;-75
2023/07/15 02:03:17;;;;;;;5.15;2.20;;;23.80;99.90;;;;;;5122812;27;20089;-75
2023/07/15 02:05:43;;;;;;;4.32;2.55;;;23.80;99.90;;;;;;5124638;27;20024;-75
2023/07/15 02:08:08;;;;;;;3.55;2.30;;;23.90;99.90;;;;;;5125437;27;20016;-75
2023/07/15 02:10:34;;;;;;;3.13;2.78;;;23.80;99.90;;;;;;5123784;27;20015;-75
2023/07/15 02:13:00;;;;;;;4.25;2.88;;;23.80;99.90;;;;;;5125775;27;20514;-75
2023/07/15 02:15:25;;;;;;;2.97;2.22;;;23.80;99.90;;;;;;5121703;27;20084;-75
2023/07/15 02:17:54;;;;;;;3.05;2.30;;;23.70;99.90;;;;;;5126416;27;20023;-75
2023/07/15 02:20:21;;;;;;;4.60;2.13;;;23.60;99.90;;;;;;5123169;27;20057;-75
2023/07/15 02:22:47;;;;;;;3.90;2.40;;;23.70;99.90;;;;;;5125621;27;20020;-75
2023/07/15 02:25:12;;;;;;;3.10;2.60;;;23.70;99.90;;;;;;5123583;27;20034;-75
2023/07/15 02:27:38;;;;;;;3.50;2.40;;;23.70;99.90;;;;;;5124872;27;20120;-75
2023/07/15 02:30:08;;;;;;;8.40;2.70;;;23.70;99.90;;;;;;5123484;27;20399;-75
2023/07/15 02:32:39;;;;;;;7.07;2.45;;;23.70;99.90;;;;;;5121146;27;20486;-75
2023/07/15 02:35:10;;;;;;;6.95;2.35;;;23.60;99.90;;;;;;5122259;27;20041;-75
2023/07/15 02:37:41;;;;;;;3.50;3.20;;;23.70;99.90;;;;;;5125310;27;20027;-75
2023/07/15 02:40:10;;;;;;;4.32;2.33;;;23.60;99.90;;;;;;5124198;27;20047;-75
2023/07/15 02:42:36;;;;;;;8.90;2.65;;;23.60;99.90;;;;;;5123444;27;20106;-75
2023/07/15 02:45:04;;;;;;;7.05;2.75;;;23.60;99.90;;;;;;5125018;27;20037;-75
2023/07/15 02:47:31;;;;;;;4.03;2.85;;;23.60;99.90;;;;;;5122234;27;20513;-76
2023/07/15 02:50:00;;;;;;;3.58;2.90;;;23.60;99.90;;;;;;5122329;27;20499;-75
2023/07/15 02:52:26;;;;;;;6.13;3.05;;;23.50;99.90;;;;;;5123678;27;20050;-75
2023/07/15 02:54:52;;;;;;;3.22;2.90;;;23.50;99.90;;;;;;5123429;27;20055;-75
2023/07/15 02:57:18;;;;;;;8.00;2.75;;;23.50;99.90;;;;;;5124054;27;20051;-75
2023/07/15 02:59:43;;;;;;;5.75;2.40;;;23.50;99.90;;;;;;5123999;27;20053;-75
2023/07/15 03:02:10;;;;;;;5.13;3.35;;;23.50;99.90;;;;;;5121074;27;20114;-75
2023/07/15 03:04:37;;;;;;;5.55;2.90;;;23.50;99.90;;;;;;5124498;27;20535;-75
2023/07/15 03:07:03;;;;;;;4.07;2.80;;;23.50;99.90;;;;;;5121797;27;20067;-75
2023/07/15 03:09:32;;;;;;;6.07;2.97;;;23.60;99.90;;;;;;5125115;27;20106;-75
2023/07/15 03:11:57;;;;;;;5.65;2.70;;;23.50;99.90;;;;;;5121654;27;20566;-75
2023/07/15 03:14:23;;;;;;;3.90;2.90;;;23.40;99.90;;;;;;5124678;27;20373;-75
2023/07/15 03:16:48;;;;;;;3.90;2.70;;;23.50;99.90;;;;;;5122413;27;20058;-75
2023/07/15 03:19:14;;;;;;;3.22;2.65;;;23.40;99.90;;;;;;5124052;27;20027;-75
2023/07/15 03:21:40;;;;;;;8.52;3.17;;;23.40;99.90;;;;;;5122950;27;20547;-75
2023/07/15 03:24:05;;;;;;;8.20;2.90;;;23.40;99.90;;;;;;5123185;27;20038;-75
2023/07/15 03:26:31;;;;;;;7.50;3.17;;;23.40;99.90;;;;;;5123606;27;20019;-75
2023/07/15 03:28:58;;;;;;;4.00;2.80;;;23.30;99.90;;;;;;5123705;27;20059;-75
2023/07/15 03:31:24;;;;;;;9.35;3.40;;;23.30;99.90;;;;;;5125228;27;20083;-75
2023/07/15 03:33:51;;;;;;;5.70;3.00;;;23.30;99.90;;;;;;5123843;27;20478;-75
2023/07/15 03:36:17;;;;;;;6.28;2.80;;;23.30;99.90;;;;;;5119836;27;20387;-75
2023/07/15 03:38:43;;;;;;;3.75;2.67;;;23.30;99.90;;;;;;5124822;27;20205;-75
2023/07/15 03:41:09;;;;;;;4.53;2.88;;;23.40;99.90;;;;;;5121342;27;20028;-75
2023/07/15 03:43:35;;;;;;;6.55;2.60;;;23.40;99.90;;;;;;5123796;27;20481;-75
2023/07/15 03:46:00;;;;;;;4.88;2.92;;;23.30;99.90;;;;;;5120850;27;20375;-75
2023/07/15 03:48:26;;;;;;;3.28;2.97;;;23.30;99.90;;;;;;5123298;27;20358;-75
2023/07/15 03:50:53;;;;;;;5.60;2.85;;;23.30;99.90;;;;;;5122685;27;20451;-75
2023/07/15 03:53:18;;;;;;;8.25;2.72;;;23.30;99.90;;;;;;5122401;27;20044;-75
2023/07/15 03:55:44;;;;;;;5.78;2.83;;;23.30;99.90;;;;;;5122587;27;20106;-75
2023/07/15 03:58:10;;;;;;;4.03;2.88;;;23.40;99.90;;;;;;5124732;27;20057;-75
2023/07/15 04:00:35;;;;;;;5.38;3.20;;;23.30;99.90;;;;;;5122340;27;20019;-75
2023/07/15 04:03:01;;;;;;;3.35;2.80;;;23.30;99.90;;;;;;5120836;27;20023;-75
2023/07/15 04:05:27;;;;;;;5.15;2.70;;;23.30;99.90;;;;;;5124256;27;20039;-75
2023/07/15 04:07:53;;;;;;;6.45;3.10;;;23.30;99.90;;;;;;5120654;27;20360;-75
2023/07/15 04:10:19;;;;;;;7.10;3.17;;;23.20;99.90;;;;;;5123673;27;20098;-75
2023/07/15 04:12:45;;;;;;;3.25;2.95;;;23.20;99.90;;;;;;5121167;27;20349;-75
2023/07/15 04:15:11;;;;;;;4.93;3.45;;;23.10;99.90;;;;;;5122939;27;20117;-75
2023/07/15 04:17:37;;;;;;;9.00;3.15;;;23.10;99.90;;;;;;5119828;27;20220;-75
2023/07/15 04:20:10;;;;;;;6.45;3.10;;;23.10;99.90;;;;;;5122274;27;20431;-75
2023/07/15 04:22:38;;;;;;;6.65;2.78;;;23.10;99.90;;;;;;5123620;27;20087;-75
2023/07/15 04:25:04;;;;;;;5.28;2.80;;;23.10;99.90;;;;;;5119945;27;20036;-75
2023/07/15 04:27:30;;;;;;;4.82;3.50;;;23.10;99.90;;;;;;5123778;27;20023;-75
2023/07/15 04:29:57;;;;;;;2.67;2.47;;;23.10;99.90;;;;;;5120810;27;20024;-75
2023/07/15 04:32:23;;;;;;;6.75;3.53;;;23.10;99.90;;;;;;5123615;27;20395;-75
2023/07/15 04:34:50;;;;;;;3.78;2.53;;;23.10;99.90;;;;;;5122631;27;20027;-75
2023/07/15 04:37:17;;;;;;;5.60;3.00;;;23.10;99.90;;;;;;5122042;27;20024;-75
2023/07/15 04:39:43;;;;;;;7.97;2.90;;;23.10;99.90;;;;;;5121850;27;20031;-75
2023/07/15 04:42:09;;;;;;;7.65;3.20;;;23.10;99.90;;;;;;5116000;28;20031;-75
2023/07/15 04:44:35;;;;;;;3.95;2.80;;;23.20;99.90;;;;;;5123107;28;20605;-75
2023/07/15 04:47:01;;;;;;;3.72;2.97;;;23.20;99.90;;;;;;5120436;28;20032;-75
2023/07/15 04:49:27;;;;;;;4.63;3.28;;;23.30;99.90;;;;;;5123931;28;20385;-74
2023/07/15 04:51:52;;;;;;;6.25;3.72;;;23.30;99.90;;;;;;5120106;28;20039;-74
2023/07/15 04:54:18;;;;;;;5.30;3.03;;;23.30;99.90;;;;;;5123252;27;20471;-75
2023/07/15 04:56:44;;;;;;;5.65;2.53;;;23.30;99.90;;;;;;5120743;28;20023;-75
2023/07/15 04:59:11;;;;;;;3.05;2.85;;;23.40;99.90;;;;;;5127277;27;20065;-75
2023/07/15 05:01:36;;;;;;;3.92;3.47;;;23.40;99.90;;;;;;5126002;27;20080;-75
2023/07/15 05:04:03;;;;;;;6.80;3.22;;;23.40;99.90;;;;;;5117717;28;20027;-75
2023/07/15 05:06:29;;;;;;;5.35;2.95;;;23.50;99.90;;;;;;5121287;27;20102;-75
2023/07/15 05:08:55;;;;;;;8.77;3.13;;;23.50;99.90;;;;;;5122502;28;20119;-75
2023/07/15 05:11:21;;;;;;;8.20;3.50;;;23.60;99.90;;;;;;5120268;27;20015;-75
2023/07/15 05:13:47;;;;;;;3.35;3.08;;;23.50;99.90;;;;;;5123131;28;20092;-75
2023/07/15 05:16:15;;;;;;;6.22;3.70;;;23.60;99.90;;;;;;5118504;28;20024;-76
2023/07/15 05:18:41;;;;;;;6.38;3.20;;;23.70;99.90;;;;;;5120205;28;20072;-75
2023/07/15 05:21:07;;;;;;;6.20;3.10;;;23.70;99.90;;;;;;5122754;28;20027;-75
2023/07/15 05:23:33;;;;;;;6.25;3.67;;;23.70;99.90;;;;;;5120596;28;20039;-75
2023/07/15 05:26:02;;;;;;;6.30;3.38;;;23.70;99.90;;;;;;5121890;27;20023;-75
2023/07/15 05:28:31;;;;;;;3.50;3.20;;;23.80;99.90;;;;;;5121853;27;20020;-75
2023/07/15 05:30:58;;;;;;;3.90;3.55;;;23.80;99.90;;;;;;5122852;27;20051;-75
2023/07/15 05:33:23;;;;;;;4.80;3.20;;;23.80;99.90;;;;;;5123523;27;20015;-75
2023/07/15 05:35:55;;;;;;;7.78;3.63;;;23.90;99.90;;;;;;5123427;27;20111;-76
2023/07/15 05:38:25;;;;;;;;;;;24.00;99.90;;;;;;5123597;27;20521;-75
2023/07/15 05:40:54;;;;;;;5.25;3.60;;;24.10;99.90;;;;;;5123980;27;20016;-75
2023/07/15 05:43:20;;;;;;;5.53;2.88;;;24.00;99.90;;;;;;5125981;27;20023;-75
2023/07/15 05:45:46;;;;;;;6.07;3.55;;;24.10;99.90;;;;;;5121944;27;20390;-75
2023/07/15 05:48:12;;;;;;;4.03;2.97;;;24.20;99.90;;;;;;5122504;27;20027;-75
2023/07/15 05:50:38;;;;;;;5.80;3.42;;;24.30;99.90;;;;;;5126998;27;20023;-75
2023/07/15 05:53:05;;;;;;;8.48;3.47;;;24.30;99.90;;;;;;5123058;27;20012;-75
2023/07/15 05:55:34;;;;;;;6.18;3.10;;;24.40;99.90;;;;;;5139280;27;20031;-75
2023/07/15 05:58:09;;;;;;;5.85;3.45;;;24.40;99.90;;;;;;5125580;27;20099;-74
2023/07/15 06:00:36;;;;;;;3.70;3.15;;;24.50;99.90;;;;;;5125774;27;20034;-75
2023/07/15 06:03:02;;;;;;;7.82;3.00;;;24.60;99.90;;;;;;5121209;27;20042;-75
2023/07/15 06:05:29;;;;;;;4.93;3.30;;;24.60;99.90;;;;;;5126524;27;20026;-75
2023/07/15 06:07:55;;;;;;;9.18;3.83;;;24.60;99.90;;;;;;5118778;27;20076;-75
2023/07/15 06:10:21;;;;;;;10.02;3.38;;;24.70;99.90;;;;;;5123416;27;20027;-75
2023/07/15 06:12:46;;;;;;;4.30;3.13;;;24.80;99.90;;;;;;5124843;27;20121;-75
2023/07/15 06:15:12;;;;;;;7.72;2.92;;;24.80;99.90;;;;;;5127735;27;20023;-75
2023/07/15 06:17:38;;;;;;;4.30;3.47;;;24.90;99.90;;;;;;5136349;27;20390;-75
2023/07/15 06:20:05;;;;;;;7.00;3.60;;;25.00;99.90;;;;;;5128608;27;20031;-75
2023/07/15 06:22:31;;;;;;;5.85;3.75;;;25.00;99.90;;;;;;5123680;27;20019;-75
2023/07/15 06:24:56;;;;;;;3.47;3.10;;;25.00;99.90;;;;;;5115380;28;20027;-75
2023/07/15 06:27:23;;;;;;;4.43;3.30;;;25.10;99.90;;;;;;5122892;27;20110;-75
2023/07/15 06:29:49;;;;;;;4.55;3.58;;;25.10;99.90;;;;;;5126515;27;20023;-75
2023/07/15 06:32:15;;;;;;;5.40;3.42;;;25.20;99.90;;;;;;5118124;27;20024;-75
2023/07/15 06:34:41;;;;;;;7.32;4.35;;;25.20;99.90;;;;;;5114852;27;20486;-75
2023/07/15 06:37:06;;;;;;;8.55;4.13;;;25.30;99.90;;;;;;5115317;28;20060;-75
2023/07/15 06:39:32;;;;;;;6.28;4.32;;;25.30;99.90;;;;;;5114038;28;20421;-75
2023/07/15 06:41:58;;;;;;;7.07;3.92;;;25.40;99.90;;;;;;5114576;28;20459;-75
2023/07/15 06:44:26;;;;;;;7.93;3.58;;;25.50;99.90;;;;;;5115147;28;20028;-75
2023/07/15 06:46:52;;;;;;;9.73;4.10;;;25.50;99.90;;;;;;5118823;27;20092;-75
2023/07/15 06:49:18;;;;;;;10.57;3.83;;;25.50;99.90;;;;;;5125626;27;20545;-75
2023/07/15 06:51:43;;;;;;;6.45;4.63;;;25.60;99.90;;;;;;5120404;27;20016;-75
2023/07/15 06:54:09;;;;;;;7.72;4.63;;;25.60;99.90;;;;;;5134337;27;20107;-75
2023/07/15 06:56:38;;;;;;;9.18;4.30;;;25.70;99.90;;;;;;5121587;27;20399;-75
2023/07/15 06:59:04;;;;;;;6.85;4.28;;;25.70;99.90;;;;;;5127397;27;20517;-75
2023/07/15 07:01:30;;;;;;;9.63;4.28;;;25.80;99.90;;;;;;5123901;27;20024;-75
2023/07/15 07:03:55;;;;;;;11.27;4.45;;;25.80;99.90;;;;;;5119592;27;20530;-75
2023/07/15 07:06:21;;;;;;;9.02;4.05;;;25.80;99.90;;;;;;5125877;27;20023;-76
2023/07/15 07:08:48;;;;;;;11.65;4.70;;;25.80;99.90;;;;;;5113417;28;20016;-75
2023/07/15 07:11:13;;;;;;;7.55;3.63;;;25.90;99.90;;;;;;5113171;28;20023;-76
2023/07/15 07:13:39;;;;;;;8.63;3.92;;;25.90;99.90;;;;;;5126160;27;20543;-75
2023/07/15 07:16:05;;;;;;;11.82;4.07;;;26.00;99.90;;;;;;5124065;27;20379;-75
2023/07/15 07:18:30;;;;;;;10.40;3.83;;;26.00;99.90;;;;;;5120446;27;20029;-75
2023/07/15 07:20:57;;;;;;;7.53;4.32;;;26.10;99.90;;;;;;5120998;27;20506;-75
2023/07/15 07:23:23;;;;;;;10.68;4.03;;;26.10;99.90;;;;;;5139164;27;20079;-75
2023/07/15 07:25:50;;;;;;;5.97;4.70;;;26.20;99.90;;;;;;5118745;27;20024;-75
2023/07/15 07:28:16;;;;;;;12.55;4.65;;;26.20;99.90;;;;;;5123771;27;20019;-75
2023/07/15 07:30:44;;;;;;;10.18;4.85;;;26.20;99.90;;;;;;5124642;27;20035;-75
2023/07/15 07:33:13;;;;;;;12.30;5.03;;;26.40;99.90;;;;;;5122127;27;20020;-75
2023/07/15 07:35:45;;;;;;;7.32;4.53;;;26.40;99.90;;;;;;5122290;27;20110;-75
2023/07/15 07:38:10;;;;;;;;;;;26.50;99.90;;;;;;5120583;27;20077;-75
2023/07/15 07:40:36;;;;;;;9.32;5.18;;;26.50;99.90;;;;;;5121716;27;19904;-75
2023/07/15 07:43:04;;;;;;;8.85;5.10;;;26.50;99.90;;;;;;5119337;27;20110;-75
2023/07/15 07:45:29;;;;;;;8.93;4.68;;;26.50;99.90;;;;;;5122342;27;20023;-75
2023/07/15 07:47:55;;;;;;;7.93;4.65;;;26.50;99.90;;;;;;5120045;27;20082;-75
2023/07/15 07:50:21;;;;;;;12.95;4.93;;;26.60;99.90;;;;;;5122392;27;20084;-75
2023/07/15 07:52:47;;;;;;;13.80;4.93;;;26.60;99.90;;;;;;5122023;27;20016;-75
2023/07/15 07:55:13;;;;;;;9.82;5.00;;;26.60;99.90;;;;;;5122817;27;20019;-75
2023/07/15 07:57:38;;;;;;;16.42;6.25;;;26.60;99.90;;;;;;5130524;27;20057;-75
2023/07/15 08:00:05;;;;;;;11.05;5.32;;;26.60;99.90;;;;;;5122055;27;20083;-75
2023/07/15 08:02:31;;;;;;;11.38;6.43;;;26.70;99.90;;;;;;5124028;27;20027;-75
2023/07/15 08:04:56;;;;;;;10.65;4.55;;;26.70;99.90;;;;;;5120945;27;20028;-75
2023/07/15 08:07:22;;;;;;;7.90;4.75;;;26.70;99.90;;;;;;5123941;27;20062;-75
2023/07/15 08:09:47;;;;;;;10.55;4.78;;;26.70;99.90;;;;;;5120264;27;20027;-75
2023/07/15 08:12:13;;;;;;;14.50;4.93;;;26.70;99.90;;;;;;5123983;27;20482;-76
2023/07/15 08:14:39;;;;;;;15.77;6.10;;;26.70;99.90;;;;;;5120897;27;20402;-75
2023/07/15 08:17:07;;;;;;;11.85;5.10;;;26.80;99.90;;;;;;5123349;27;20027;-75
2023/07/15 08:19:36;;;;;;;7.20;5.05;;;26.90;99.90;;;;;;5124248;27;20015;-75
2023/07/15 08:22:05;;;;;;;7.57;5.45;;;26.90;99.90;;;;;;5122440;27;20088;-75
2023/07/15 08:24:30;;;;;;;8.73;5.38;;;26.90;99.90;;;;;;5120952;27;20024;-75
2023/07/15 08:26:56;;;;;;;16.77;6.63;;;27.00;99.90;;;;;;5119978;27;20072;-75
2023/07/15 08:29:22;;;;;;;9.70;6.13;;;27.10;99.90;;;;;;5123728;27;20071;-75
2023/07/15 08:31:47;;;;;;;14.63;5.28;;;27.20;99.90;;;;;;5119161;27;20024;-76
2023/07/15 08:34:13;;;;;;;11.90;5.60;;;27.20;99.90;;;;;;5120236;27;20505;-75
2023/07/15 08:36:39;;;;;;;8.82;5.47;;;27.20;99.90;;;;;;5123406;27;20035;-75
2023/07/15 08:39:05;;;;;;;7.32;6.00;;;27.30;99.90;;;;;;5120775;27;20441;-75
2023/07/15 08:41:30;;;;;;;7.28;5.35;;;27.40;99.90;;;;;;5118996;27;20023;-75
2023/07/15 08:43:56;;;;;;;11.68;6.18;;;27.40;99.90;;;;;;5121391;28;20027;-75
2023/07/15 08:46:27;;;;;;;18.25;6.53;;;27.40;99.90;;;;;;5122008;28;20088;-75
2023/07/15 08:48:57;;;;;;;8.27;5.23;;;27.40;99.90;;;;;;5123005;28;20815;-75
2023/07/15 08:51:28;;;;;;;8.93;4.80;;;27.40;99.90;;;;;;5120031;27;20024;-75
2023/07/15 08:53:56;;;;;;;10.98;6.78;;;27.40;99.90;;;;;;5120766;28;20099;-75
2023/07/15 08:56:23;;;;;;;7.38;4.80;;;27.50;99.90;;;;;;5122357;27;20030;-75
2023/07/15 08:58:49;;;;;;;8.02;4.90;;;27.50;99.90;;;;;;5121753;28;20042;-75
2023/07/15 09:01:15;;;;;;;8.30;4.40;;;27.50;99.90;;;;;;5117565;28;20027;-75
2023/07/15 09:03:40;;;;;;;7.15;4.65;;;27.50;99.90;;;;;;5120129;27;20016;-75
2023/07/15 09:06:07;;;;;;;7.35;5.15;;;27.60;99.90;;;;;;5124934;27;20035;-75
2023/07/15 09:08:33;;;;;;;10.20;4.78;;;27.70;99.90;;;;;;5127286;27;20015;-75
2023/07/15 09:10:59;;;;;;;8.25;5.60;;;27.70;99.90;;;;;;5123846;27;20050;-75
2023/07/15 09:13:31;;;;;;;9.13;5.40;;;27.90;99.90;;;;;;5122411;27;20507;-75
2023/07/15 09:15:58;;;;;;;10.40;5.80;;;27.90;99.90;;;;;;5126520;27;20474;-75
2023/07/15 09:18:24;;;;;;;9.00;4.72;;;27.80;99.90;;;;;;5125640;27;20038;-75
2023/07/15 09:20:50;;;;;;;9.20;5.38;;;27.80;99.90;;;;;;5126526;27;20023;-75
2023/07/15 09:23:18;;;;;;;11.02;4.55;;;27.80;99.90;;;;;;5127784;27;20497;-75
2023/07/15 09:25:53;;;;;;;8.23;4.90;;;27.80;99.90;;;;;;5124226;27;20019;-75
2023/07/15 09:28:20;;;;;;;8.57;5.15;;;27.90;99.90;;;;;;5124278;27;20020;-75
2023/07/15 09:30:45;;;;;;;9.65;5.53;;;28.00;99.90;;;;;;5126323;27;20053;-75
2023/07/15 09:33:31;;;;;;;8.48;5.10;;;28.10;99.90;;;;;;5122051;27;20439;-75
2023/07/15 09:35:57;;;;;;;13.52;5.90;;;28.10;99.90;;;;;;5123907;27;20038;-75
2023/07/15 09:38:23;;;;;;;15.73;6.20;;;28.20;99.90;;;;;;5126281;27;20027;-75
2023/07/15 09:40:49;;;;;;;7.43;5.05;;;28.20;99.90;;;;;;5124379;27;20027;-75
2023/07/15 09:43:15;;;;;;;13.82;5.55;;;28.40;99.90;;;;;;5125572;27;20048;-75
2023/07/15 09:45:41;;;;;;;7.72;4.90;;;28.50;99.90;;;;;;5124941;27;20398;-75
2023/07/15 09:48:08;;;;;;;8.85;5.15;;;28.50;99.90;;;;;;5128545;27;20020;-75
2023/07/15 09:50:35;;;;;;;5.65;5.10;;;28.50;99.90;;;;;;5124127;27;20016;-75
2023/07/15 09:53:02;;;;;;;7.28;4.63;;;28.50;99.90;;;;;;5126423;27;20534;-75
2023/07/15 09:55:30;;;;;;;5.93;4.40;;;28.60;99.90;;;;;;5121692;27;20098;-75
2023/07/15 09:58:10;;;;;;;10.00;4.88;;;28.60;99.90;;;;;;5127540;27;20126;-75
2023/07/15 10:00:45;;;;;;;7.30;4.88;;;28.60;99.90;;;;;;5125078;27;20054;-75
2023/07/15 10:03:20;;;;;;;7.65;4.63;;;28.70;99.90;;;;;;5121060;27;20023;-75
2023/07/15 10:05:47;;;;;;;8.35;4.53;;;28.80;99.90;;;;;;5126695;27;20585;-75
2023/07/15 10:08:13;;;;;;;7.25;4.60;;;28.90;99.90;;;;;;5122981;27;20030;-75
2023/07/15 10:10:40;;;;;;;9.88;5.05;;;28.90;99.90;;;;;;5125486;27;20027;-75
2023/07/15 10:13:07;;;;;;;7.30;4.22;;;28.90;99.90;;;;;;5123036;27;20097;-75
2023/07/15 10:15:33;;;;;;;4.97;4.57;;;29.00;99.90;;;;;;5125399;27;20507;-75
2023/07/15 10:18:16;;;;;;;7.45;4.25;;;29.00;99.90;;;;;;5128966;27;20047;-75
2023/07/15 10:20:55;;;;;;;5.93;4.50;;;29.10;99.90;;;;;;5133295;27;20031;-75
2023/07/15 10:23:28;;;;;;;8.65;4.45;;;29.00;99.90;;;;;;5131236;27;20027;-75
2023/07/15 10:26:07;;;;;;;6.25;3.88;;;29.10;99.90;;;;;;5132460;27;20019;-75
2023/07/15 10:28:40;;;;;;;6.22;4.18;;;29.10;99.90;;;;;;5130584;27;20080;-75
2023/07/15 10:31:09;;;;;;;4.97;3.25;;;29.10;99.90;;;;;;5132657;27;20065;-76
2023/07/15 10:33:56;;;;;;;7.45;4.18;;;29.20;99.90;;;;;;5138045;27;20034;-76
2023/07/15 10:36:44;;;;;;;7.30;3.65;;;29.40;99.90;;;;;;5128056;27;20377;-75
2023/07/15 10:39:18;;;;;;;8.73;4.55;;;29.50;99.90;;;;;;5124683;27;20047;-75
2023/07/15 10:41:49;;;;;;;7.13;4.82;;;29.60;99.90;;;;;;5124048;27;20479;-75
2023/07/15 10:44:25;;;;;;;6.03;3.85;;;29.70;99.90;;;;;;5133890;27;20023;-75
2023/07/15 10:47:02;;;;;;;9.38;4.57;;;29.70;99.90;;;;;;5123006;27;20031;-75
2023/07/15 10:49:29;;;;;;;5.95;4.30;;;29.80;99.90;;;;;;5125616;27;20035;-75
2023/07/15 10:51:55;;;;;;;7.47;3.92;;;29.80;99.90;;;;;;5121292;27;20501;-75
2023/07/15 10:54:29;;;;;;;12.98;4.78;;;30.00;99.90;;;;;;5122279;27;20024;-75
2023/07/15 10:56:54;;;;;;;6.53;4.55;;;30.00;99.90;;;;;;5123603;27;20106;-75
2023/07/15 10:59:31;;;;;;;7.47;4.47;;;30.00;99.90;;;;;;5123105;27;20107;-75
2023/07/15 11:01:58;;;;;;;6.22;4.32;;;30.10;99.90;;;;;;5121750;27;20031;-75
2023/07/15 11:04:24;;;;;;;10.65;4.63;;;30.20;99.90;;;;;;5124769;27;20027;-75
2023/07/15 11:06:50;;;;;;;7.80;4.28;;;30.30;99.90;;;;;;5122441;27;20046;-75
2023/07/15 11:09:18;;;;;;;8.98;4.55;;;30.30;99.90;;;;;;5122763;27;20326;-75
2023/07/15 11:11:44;;;;;;;6.72;4.07;;;30.40;99.90;;;;;;5122848;27;20036;-75
2023/07/15 11:14:19;;;;;;;7.22;4.43;;;30.40;99.90;;;;;;5132424;27;20038;-75
2023/07/15 11:16:45;;;;;;;8.32;4.18;;;30.40;99.90;;;;;;5134658;27;20137;-75
2023/07/15 11:19:15;;;;;;;5.25;4.07;;;30.30;99.90;;;;;;5126609;27;20478;-75
2023/07/15 11:21:44;;;;;;;8.82;4.65;;;30.30;99.90;;;;;;5130710;27;20030;-75
2023/07/15 11:24:12;;;;;;;11.15;4.32;;;30.40;99.90;;;;;;5126712;27;20113;-76
2023/07/15 11:26:37;;;;;;;6.78;4.35;;;30.50;99.90;;;;;;5130102;27;20505;-75
2023/07/15 11:29:14;;;;;;;8.75;4.35;;;30.60;99.90;;;;;;5121532;27;20011;-75
2023/07/15 11:31:44;;;;;;;7.05;4.07;;;30.70;99.90;;;;;;5119822;27;20057;-75
2023/07/15 11:34:10;;;;;;;8.88;4.32;;;30.80;99.90;;;;;;5115521;27;20023;-75
2023/07/15 11:36:39;;;;;;;5.82;4.10;;;30.90;99.90;;;;;;5126461;27;20068;-75
2023/07/15 11:39:06;;;;;;;6.35;4.43;;;31.00;99.90;;;;;;5123362;27;20027;-75
2023/07/15 11:41:36;;;;;;;4.93;3.92;;;31.00;99.90;;;;;;5125876;27;20030;-75
2023/07/15 11:44:10;;;;;;;13.27;4.65;;;31.10;99.90;;;;;;5125841;27;20065;-75
2023/07/15 11:46:40;;;;;;;9.48;4.05;;;31.20;99.90;;;;;;5127619;27;20043;-75
2023/07/15 11:49:07;;;;;;;9.85;4.20;;;31.20;99.90;;;;;;5116141;27;20513;-75
2023/07/15 11:51:36;;;;;;;8.10;4.22;;;31.20;99.90;;;;;;5122089;27;20020;-76
2023/07/15 11:54:07;;;;;;;5.53;3.45;;;31.30;99.90;;;;;;5123088;27;20031;-75
2023/07/15 11:56:33;;;;;;;8.57;4.20;;;31.40;99.90;;;;;;5118444;27;20571;-75
2023/07/15 11:58:58;;;;;;;7.28;3.92;;;31.40;99.90;;;;;;5125973;27;20102;-76
2023/07/15 12:01:25;;;;;;;6.25;4.50;;;31.60;99.90;;;;;;5123534;27;20096;-75
2023/07/15 12:03:52;;;;;;;8.48;4.50;;;31.80;99.90;;;;;;5120596;27;20027;-75
2023/07/15 12:06:23;;;;;;;6.07;3.78;;;31.90;99.90;;;;;;5124741;27;20069;-75
2023/07/15 12:09:03;;;;;;;7.97;4.28;;;31.90;99.90;;;;;;5122233;27;20015;-75
2023/07/15 12:11:30;;;;;;;8.00;4.40;;;32.00;99.30;;;;;;5126787;27;20580;-75
2023/07/15 12:13:56;;;;;;;6.70;4.30;;;31.90;98.20;;;;;;5133156;27;20374;-75
2023/07/15 12:16:24;;;;;;;7.18;4.18;;;31.90;97.40;;;;;;5128912;27;20063;-75
2023/07/15 12:18:50;;;;;;;5.18;4.80;;;32.00;99.90;;;;;;5126307;27;20110;-75
2023/07/15 12:21:19;;;;;;;4.30;3.72;;;32.20;99.90;;;;;;5133270;27;20107;-75
2023/07/15 12:23:45;;;;;;;9.43;4.85;;;32.30;99.90;;;;;;5124902;27;20023;-75
2023/07/15 12:26:11;;;;;;;6.45;4.50;;;32.50;99.90;;;;;;5118700;27;20193;-76
2023/07/15 12:28:37;;;;;;;8.07;5.00;;;32.50;99.90;;;;;;5121957;27;20064;-75
2023/07/15 12:31:02;;;;;;;8.93;3.85;;;32.50;97.00;;;;;;5119475;27;20038;-75
2023/07/15 12:33:28;;;;;;;7.70;4.72;;;32.50;96.60;;;;;;5123747;27;20034;-75
2023/07/15 12:35:57;;;;;;;11.60;4.60;;;32.70;97.30;;;;;;5122259;28;20054;-75
2023/07/15 12:38:23;;;;;;;12.65;4.57;;;32.70;96.80;;;;;;5119580;27;20063;-76
2023/07/15 12:40:50;;;;;;;7.55;4.68;;;32.80;95.70;;;;;;5121391;28;20059;-76
2023/07/15 12:43:15;;;;;;;6.70;4.50;;;32.90;96.90;;;;;;5119222;28;20410;-75
2023/07/15 12:45:42;;;;;;;7.50;4.03;;;33.00;96.70;;;;;;5123835;28;20027;-76